Search for airport 
image banner adimage banner adimage banner ad
image banner ad

PS82 - Lazy J Ranch

Located in Springbrook, United States

ICAO - PS82, IATA -

Data provided by Airmate  

General information

Coordinates: N41°17'45" W75°35'52"
Elevation is 1650 feet MSL.
Magnetic variation is -12° East
View others Airports in Pennsylvania

Operational data

Special qualification required
Current time UTC:
Current local time:
Weather at : KAVP - Wilkes-Barre/Scranton Intl ( 12 km )
METAR: KAVP 182254Z 28005KT 10SM CLR 26/07 A3024 RMK AO2 SLP237 T02610067
TAF: KAVP 181722Z 1818/1918 30006G11KT P6SM SCT050 FM182300 VRB03KT P6SM FEW250
View NOTAMs / SUP AIP / TFR affecting this airport [VIEW]
Communications frequencies: [VIEW]

Runways:

RWY identifierQFULength (ft)Width (ft)SurfaceLDA (ft)
021480100GRASS
201480100GRASS

Airport contact information

Address: Springbrook United States

Satellite view of PS82